Time;durP1;ratioP1;P1;durP2;ratioP2;P2;SDS_P1;SDS_P2;PMS_P1;PMS_P2;Temp;Humidity;BMP_temperature;BMP_pressure;BME280_temperature;BME280_humidity;BME280_pressure;Samples;Min_cycle;Max_cycle;Signal;HPM_P1;HPM_P2
2022/07/21 00:00:45;;;;;;;11.10;7.60;;;22.10;62.30;;;;;;5051404;28;20123;-68
2022/07/21 00:03:10;;;;;;;8.02;7.00;;;22.10;62.90;;;;;;5051900;28;20045;-68
2022/07/21 00:05:36;;;;;;;12.15;8.27;;;22.20;63.50;;;;;;5051099;28;20166;-69
2022/07/21 00:08:02;;;;;;;8.45;6.65;;;22.10;63.80;;;;;;5051549;28;20094;-69
2022/07/21 00:10:28;;;;;;;7.43;5.55;;;22.20;63.40;;;;;;5051324;28;20037;-69
2022/07/21 00:12:54;;;;;;;8.52;6.25;;;22.10;62.80;;;;;;5051703;28;20056;-69
2022/07/21 00:15:22;;;;;;;9.23;7.68;;;22.20;62.90;;;;;;5068230;28;20124;-69
2022/07/21 00:17:48;;;;;;;12.40;8.15;;;22.20;63.30;;;;;;5052726;28;20044;-69
2022/07/21 00:20:16;;;;;;;12.57;8.48;;;22.20;64.10;;;;;;5051038;28;20043;-69
2022/07/21 00:22:42;;;;;;;12.45;9.50;;;22.20;64.60;;;;;;5051432;28;20397;-69
2022/07/21 00:25:09;;;;;;;12.20;9.45;;;22.10;65.00;;;;;;5051460;28;20454;-69
2022/07/21 00:27:35;;;;;;;10.82;9.15;;;22.10;65.30;;;;;;5031697;28;20107;-69
2022/07/21 00:30:03;;;;;;;11.88;9.07;;;22.00;65.10;;;;;;5043103;28;20437;-69
2022/07/21 00:32:29;;;;;;;13.38;9.40;;;22.00;65.50;;;;;;5051359;28;20033;-69
2022/07/21 00:34:55;;;;;;;12.90;9.07;;;22.00;65.40;;;;;;5052160;28;20102;-69
2022/07/21 00:37:23;;;;;;;15.25;10.88;;;21.90;65.40;;;;;;5050991;28;20124;-69
2022/07/21 00:39:50;;;;;;;16.42;11.20;;;21.90;65.90;;;;;;5051137;28;20047;-69
2022/07/21 00:42:27;;;;;;;17.15;10.82;;;21.90;66.90;;;;;;5052357;28;20473;-69
2022/07/21 00:44:53;;;;;;;13.70;10.45;;;21.80;66.80;;;;;;5054534;28;20083;-69
2022/07/21 00:47:21;;;;;;;12.77;11.25;;;21.80;67.10;;;;;;5054944;28;20594;-69
2022/07/21 00:49:47;;;;;;;15.25;11.38;;;21.70;67.40;;;;;;5056337;28;20433;-69
2022/07/21 00:52:13;;;;;;;14.85;12.90;;;21.60;67.60;;;;;;5038383;28;20063;-69
2022/07/21 00:54:39;;;;;;;16.10;12.02;;;21.60;67.90;;;;;;5056260;28;20033;-69
2022/07/21 00:57:05;;;;;;;14.20;11.50;;;21.50;68.20;;;;;;5054799;28;20086;-69
2022/07/21 00:59:31;;;;;;;18.08;12.57;;;21.40;68.50;;;;;;5054796;28;20033;-69
2022/07/21 01:01:56;;;;;;;16.52;12.05;;;21.30;68.90;;;;;;5054422;28;20498;-69
2022/07/21 01:04:23;;;;;;;16.20;13.35;;;21.20;69.10;;;;;;5054439;28;20055;-68
2022/07/21 01:06:49;;;;;;;14.50;12.13;;;21.10;69.40;;;;;;5053424;28;20389;-68
2022/07/21 01:09:14;;;;;;;15.95;12.77;;;21.00;69.80;;;;;;5055753;28;20033;-68
2022/07/21 01:11:42;;;;;;;16.52;13.93;;;20.90;70.20;;;;;;5037651;28;20037;-68
2022/07/21 01:14:08;;;;;;;18.75;14.55;;;20.90;70.70;;;;;;5021152;28;20045;-68
2022/07/21 01:16:34;;;;;;;14.68;13.07;;;20.70;70.90;;;;;;5054304;28;20040;-68
2022/07/21 01:19:00;;;;;;;16.58;14.20;;;20.70;71.20;;;;;;5054467;28;20086;-69
2022/07/21 01:21:28;;;;;;;17.02;13.85;;;20.60;71.60;;;;;;5071008;28;20049;-68
2022/07/21 01:23:54;;;;;;;14.02;11.50;;;20.60;72.00;;;;;;5054255;28;20041;-69
2022/07/21 01:26:19;;;;;;;12.68;10.68;;;20.60;71.90;;;;;;5053855;28;20044;-69
2022/07/21 01:28:45;;;;;;;10.60;8.00;;;20.60;71.90;;;;;;5054160;28;20083;-69
2022/07/21 01:31:11;;;;;;;12.75;11.23;;;20.60;71.70;;;;;;5054060;28;20052;-69
2022/07/21 01:33:37;;;;;;;15.77;13.50;;;20.60;71.60;;;;;;5053977;28;20080;-69
2022/07/21 01:36:03;;;;;;;15.80;14.20;;;20.60;71.70;;;;;;5054094;28;20052;-69
2022/07/21 01:41:32;;;;;;;18.63;16.27;;;20.70;72.30;;;;;;5055023;28;20129;-64
2022/07/21 01:44:07;;;;;;;17.67;15.50;;;20.70;72.40;;;;;;5033649;28;20045;-64
2022/07/21 01:46:35;;;;;;;19.17;16.17;;;20.70;72.70;;;;;;5050684;28;20049;-64
2022/07/21 01:49:02;;;;;;;18.45;16.55;;;20.60;72.70;;;;;;5048609;28;20103;-64
2022/07/21 01:51:28;;;;;;;17.67;15.95;;;20.70;72.70;;;;;;5054259;28;20132;-64
2022/07/21 01:53:54;;;;;;;14.13;12.52;;;20.70;72.80;;;;;;5052417;28;20496;-64
2022/07/21 01:56:22;;;;;;;17.70;15.82;;;20.70;72.60;;;;;;5052690;28;20033;-64
2022/07/21 01:58:48;;;;;;;20.40;17.20;;;20.70;72.60;;;;;;5053421;28;20044;-67
2022/07/21 02:01:16;;;;;;;12.30;11.07;;;20.70;72.40;;;;;;5052973;28;20120;-67
2022/07/21 02:03:43;;;;;;;19.58;17.65;;;20.70;72.40;;;;;;5053485;28;20421;-67
2022/07/21 02:06:09;;;;;;;17.38;15.65;;;20.70;72.50;;;;;;5053421;28;20068;-67
2022/07/21 02:08:35;;;;;;;16.48;14.88;;;20.80;72.60;;;;;;5053414;28;20371;-65
2022/07/21 02:11:01;;;;;;;12.82;11.52;;;20.80;72.50;;;;;;5053596;28;20091;-65
2022/07/21 02:13:27;;;;;;;19.70;17.60;;;20.80;72.60;;;;;;5054241;28;20498;-65
2022/07/21 02:15:53;;;;;;;21.05;19.05;;;20.80;72.00;;;;;;5053398;28;20069;-65
2022/07/21 02:18:20;;;;;;;21.98;19.77;;;20.90;72.20;;;;;;5036752;28;20108;-65
2022/07/21 02:20:47;;;;;;;12.88;11.40;;;20.90;72.50;;;;;;5054354;28;20036;-65
2022/07/21 02:23:15;;;;;;;17.58;15.93;;;20.90;72.30;;;;;;5054226;28;20122;-65
2022/07/21 02:25:41;;;;;;;14.57;13.05;;;20.90;71.90;;;;;;5052804;28;20056;-64
2022/07/21 02:28:06;;;;;;;13.48;11.27;;;20.90;71.70;;;;;;5069628;28;20045;-65
2022/07/21 02:30:32;;;;;;;11.88;10.77;;;21.00;71.10;;;;;;5054267;28;20037;-64
2022/07/21 02:32:58;;;;;;;13.48;12.07;;;21.00;70.60;;;;;;5036215;28;20494;-64
2022/07/21 02:35:23;;;;;;;9.10;8.20;;;21.00;70.50;;;;;;5052401;28;20094;-64
2022/07/21 02:37:49;;;;;;;10.25;9.02;;;21.00;70.10;;;;;;5053245;28;20394;-65
2022/07/21 02:40:15;;;;;;;11.88;10.70;;;21.10;69.60;;;;;;5052367;28;20505;-64
2022/07/21 02:42:41;;;;;;;11.20;10.10;;;21.10;69.50;;;;;;5036344;28;20040;-64
2022/07/21 02:45:08;;;;;;;11.25;9.93;;;21.10;69.20;;;;;;5052570;28;20494;-64
2022/07/21 02:47:48;;;;;;;17.38;15.55;;;21.10;68.90;;;;;;5052481;28;20048;-64
2022/07/21 02:50:14;;;;;;;14.70;12.55;;;21.20;68.80;;;;;;5053698;28;20055;-64
2022/07/21 02:52:40;;;;;;;13.63;12.13;;;21.20;69.10;;;;;;5053580;28;20402;-64
2022/07/21 02:55:06;;;;;;;13.27;11.88;;;21.30;69.10;;;;;;5053550;28;20041;-64
2022/07/21 02:57:32;;;;;;;11.10;9.85;;;21.30;68.80;;;;;;5035818;28;20494;-64
2022/07/21 02:59:57;;;;;;;13.00;10.98;;;21.30;68.30;;;;;;5051898;28;20044;-65
2022/07/21 03:02:23;;;;;;;12.10;10.90;;;21.30;68.00;;;;;;5053226;28;20045;-65
2022/07/21 03:04:49;;;;;;;12.02;10.65;;;21.40;67.80;;;;;;5052044;28;20474;-65
2022/07/21 03:07:14;;;;;;;15.02;13.52;;;21.40;67.70;;;;;;5052355;28;20075;-65
2022/07/21 03:09:40;;;;;;;11.23;10.10;;;21.40;67.70;;;;;;5051991;28;20398;-64
2022/07/21 03:12:07;;;;;;;12.40;11.20;;;21.50;67.80;;;;;;5053555;28;20037;-64
2022/07/21 03:14:32;;;;;;;12.20;10.95;;;21.50;67.40;;;;;;5052985;28;20045;-64
2022/07/21 03:17:00;;;;;;;12.40;11.13;;;21.50;67.20;;;;;;5052505;28;20108;-64
2022/07/21 03:19:26;;;;;;;14.43;13.10;;;21.50;67.20;;;;;;5051849;28;20490;-64
2022/07/21 03:21:52;;;;;;;14.27;12.98;;;21.60;67.30;;;;;;5048243;28;20038;-64
2022/07/21 03:24:17;;;;;;;19.55;17.70;;;21.60;67.40;;;;;;5048953;28;20037;-64
2022/07/21 03:26:43;;;;;;;19.35;17.50;;;21.60;67.70;;;;;;5053637;28;20041;-65
2022/07/21 03:29:09;;;;;;;18.38;16.58;;;21.60;67.80;;;;;;5051742;28;20041;-64
2022/07/21 03:31:35;;;;;;;21.60;19.50;;;21.70;68.10;;;;;;5052974;28;20128;-64
2022/07/21 03:34:01;;;;;;;18.00;16.30;;;21.60;68.30;;;;;;5051725;28;20049;-64
2022/07/21 03:36:27;;;;;;;20.08;18.08;;;21.70;68.40;;;;;;5051521;28;20098;-64
2022/07/21 03:38:52;;;;;;;15.45;13.95;;;21.70;68.10;;;;;;5068333;28;20041;-67
2022/07/21 03:41:18;;;;;;;15.68;14.15;;;21.70;67.80;;;;;;5052148;28;20037;-69
2022/07/21 03:43:44;;;;;;;22.88;20.70;;;21.70;67.60;;;;;;5035075;28;20047;-69
2022/07/21 03:46:09;;;;;;;20.00;18.15;;;21.70;67.90;;;;;;5053147;28;20115;-69
2022/07/21 03:48:35;;;;;;;18.85;17.05;;;21.70;67.90;;;;;;5052960;28;20045;-69
2022/07/21 03:51:01;;;;;;;25.17;22.92;;;21.70;67.70;;;;;;5051460;28;20041;-68
2022/07/21 03:53:26;;;;;;;28.38;25.75;;;21.70;68.20;;;;;;5051667;28;20041;-68
2022/07/21 03:55:52;;;;;;;20.33;18.23;;;21.70;68.80;;;;;;5051636;28;20090;-69
2022/07/21 03:58:17;;;;;;;24.85;22.50;;;21.70;68.50;;;;;;5051502;28;20037;-68
2022/07/21 04:00:44;;;;;;;24.17;21.85;;;21.70;68.70;;;;;;5051025;28;20044;-68
2022/07/21 04:03:11;;;;;;;27.90;25.35;;;21.80;68.90;;;;;;5051142;28;20040;-69
2022/07/21 04:05:38;;;;;;;18.10;16.25;;;21.70;69.10;;;;;;5051617;28;20127;-68
2022/07/21 04:08:05;;;;;;;19.20;17.35;;;21.70;68.50;;;;;;5051450;28;20036;-69
2022/07/21 04:10:33;;;;;;;21.17;19.05;;;21.70;68.20;;;;;;5031326;28;20053;-68
2022/07/21 04:13:00;;;;;;;16.42;14.85;;;21.70;68.10;;;;;;5044525;28;20037;-69
2022/07/21 04:15:26;;;;;;;18.65;16.95;;;21.70;67.90;;;;;;5051517;28;20106;-69
2022/07/21 04:17:53;;;;;;;20.42;18.40;;;21.70;68.00;;;;;;5050782;28;20481;-64
2022/07/21 04:20:19;;;;;;;21.77;19.77;;;21.70;68.20;;;;;;5051101;28;20449;-64
2022/07/21 04:22:46;;;;;;;27.85;25.17;;;21.70;68.40;;;;;;5068034;28;20083;-65
2022/07/21 04:25:13;;;;;;;30.55;27.55;;;21.70;69.00;;;;;;5050777;28;20098;-65
2022/07/21 04:27:40;;;;;;;25.13;22.83;;;21.70;69.50;;;;;;5018279;28;20084;-65
2022/07/21 04:30:08;;;;;;;29.80;26.98;;;21.60;69.70;;;;;;5050982;28;20099;-65
2022/07/21 04:32:34;;;;;;;24.95;22.75;;;21.60;69.70;;;;;;5033872;28;20041;-65
2022/07/21 04:34:59;;;;;;;27.00;24.50;;;21.60;69.80;;;;;;5051326;28;20052;-65
2022/07/21 04:37:26;;;;;;;25.08;22.50;;;21.50;69.90;;;;;;5052351;28;20513;-65
2022/07/21 04:39:51;;;;;;;19.48;17.50;;;21.50;70.00;;;;;;5014551;28;20129;-65
2022/07/21 04:42:17;;;;;;;19.65;17.75;;;21.50;69.70;;;;;;5047544;28;20120;-65
2022/07/21 04:44:42;;;;;;;23.65;21.13;;;21.50;69.60;;;;;;5051089;28;20041;-65
2022/07/21 04:47:08;;;;;;;21.65;19.50;;;21.40;69.70;;;;;;5050904;28;20048;-66
2022/07/21 04:49:34;;;;;;;25.95;23.42;;;21.40;69.80;;;;;;5050849;28;20408;-65
2022/07/21 04:51:59;;;;;;;24.02;21.77;;;21.40;70.00;;;;;;5034113;28;20033;-65
2022/07/21 04:54:25;;;;;;;24.58;22.08;;;21.50;70.50;;;;;;5050748;28;20068;-66
2022/07/21 04:56:51;;;;;;;20.35;18.55;;;21.40;70.50;;;;;;5051852;28;20052;-65
2022/07/21 04:59:17;;;;;;;20.33;18.30;;;21.40;70.30;;;;;;5050765;28;20033;-65
2022/07/21 05:01:42;;;;;;;25.10;22.63;;;21.40;70.10;;;;;;5050265;28;20068;-65
2022/07/21 05:04:08;;;;;;;26.17;23.60;;;21.40;70.20;;;;;;5050690;28;20049;-65
2022/07/21 05:06:34;;;;;;;25.92;23.40;;;21.40;70.60;;;;;;5052477;28;20048;-65
2022/07/21 05:09:00;;;;;;;22.85;20.55;;;21.50;70.90;;;;;;5050507;28;20053;-65
2022/07/21 05:11:26;;;;;;;26.17;23.50;;;21.50;70.80;;;;;;5051861;28;20029;-65
2022/07/21 05:13:52;;;;;;;24.48;22.17;;;21.50;71.00;;;;;;5050553;28;20456;-65
2022/07/21 05:16:18;;;;;;;23.23;20.75;;;21.50;71.30;;;;;;5050332;28;20044;-65
2022/07/21 05:18:43;;;;;;;24.38;22.17;;;21.50;71.50;;;;;;5034584;28;20040;-65
2022/07/21 05:21:09;;;;;;;25.58;23.08;;;21.60;71.50;;;;;;5052043;28;20120;-65
2022/07/21 05:23:35;;;;;;;24.80;22.55;;;21.60;71.60;;;;;;5050597;28;20044;-65
2022/07/21 05:26:00;;;;;;;22.42;20.23;;;21.60;71.80;;;;;;5050752;28;20076;-66
2022/07/21 05:28:30;;;;;;;19.35;17.52;;;21.70;71.70;;;;;;5050998;28;20046;-65
2022/07/21 05:30:55;;;;;;;17.90;16.25;;;21.70;71.50;;;;;;5055109;28;20033;-65
2022/07/21 05:33:21;;;;;;;17.25;15.65;;;21.80;70.80;;;;;;5034178;28;20054;-65
2022/07/21 05:35:47;;;;;;;17.38;15.77;;;21.80;70.20;;;;;;5046253;28;20124;-65
2022/07/21 05:38:13;;;;;;;17.27;15.68;;;21.80;70.20;;;;;;5054303;28;20041;-65
2022/07/21 05:40:39;;;;;;;16.70;15.10;;;21.80;69.30;;;;;;5053942;28;20079;-65
2022/07/21 05:43:05;;;;;;;16.27;14.73;;;21.80;69.00;;;;;;5054007;28;20451;-69
2022/07/21 05:45:31;;;;;;;15.50;14.07;;;21.80;68.90;;;;;;5055294;28;20033;-69
2022/07/21 05:47:56;;;;;;;13.68;12.25;;;21.90;68.90;;;;;;5054104;28;20170;-69
2022/07/21 05:50:22;;;;;;;16.50;14.90;;;21.90;68.40;;;;;;5054208;28;20044;-68
2022/07/21 05:52:48;;;;;;;15.88;14.35;;;21.90;68.20;;;;;;5054155;28;20474;-69
2022/07/21 05:55:13;;;;;;;16.30;14.70;;;21.90;68.10;;;;;;5037522;28;20482;-68
2022/07/21 05:57:40;;;;;;;16.73;15.02;;;21.90;68.00;;;;;;5055446;28;20048;-68
2022/07/21 06:00:06;;;;;;;14.18;12.60;;;22.00;68.00;;;;;;5053627;28;20064;-69
2022/07/21 06:02:32;;;;;;;15.85;13.48;;;22.00;68.00;;;;;;5053698;28;20577;-69
2022/07/21 06:04:59;;;;;;;14.88;13.45;;;22.00;67.80;;;;;;5055013;28;20111;-68
2022/07/21 06:07:25;;;;;;;15.27;13.88;;;22.00;67.60;;;;;;5017413;28;20049;-68
2022/07/21 06:09:51;;;;;;;16.55;14.85;;;22.10;67.80;;;;;;5053501;28;20044;-68
2022/07/21 06:12:16;;;;;;;16.73;15.02;;;22.10;67.70;;;;;;5037334;28;20052;-68
2022/07/21 06:14:42;;;;;;;16.02;14.52;;;22.10;67.50;;;;;;5049624;28;20501;-68
2022/07/21 06:17:08;;;;;;;14.70;13.40;;;22.20;67.50;;;;;;5051621;28;20037;-70
2022/07/21 06:19:34;;;;;;;16.90;15.27;;;22.20;67.20;;;;;;5037058;28;20079;-69
2022/07/21 06:21:59;;;;;;;18.13;16.35;;;22.20;67.30;;;;;;5036789;28;20037;-69
2022/07/21 06:24:26;;;;;;;20.63;18.73;;;22.30;67.60;;;;;;5037272;28;20076;-69
2022/07/21 06:26:55;;;;;;;20.63;18.55;;;22.40;68.70;;;;;;5033486;28;20061;-65
2022/07/21 06:29:22;;;;;;;21.45;19.35;;;22.50;68.00;;;;;;5050050;28;20038;-65
2022/07/21 06:31:47;;;;;;;21.98;19.88;;;22.50;67.60;;;;;;5046948;28;20043;-65
2022/07/21 06:34:13;;;;;;;21.15;19.25;;;22.40;67.40;;;;;;5036216;28;20041;-65
2022/07/21 06:36:39;;;;;;;20.75;18.92;;;22.30;67.40;;;;;;5040901;28;20037;-65
2022/07/21 06:39:04;;;;;;;26.00;21.23;;;22.20;67.50;;;;;;5034796;28;20095;-65
2022/07/21 06:41:30;;;;;;;24.27;21.00;;;22.10;67.60;;;;;;5052079;28;20037;-65
2022/07/21 06:43:56;;;;;;;19.52;17.70;;;22.00;67.70;;;;;;5036347;28;20398;-65
2022/07/21 06:46:22;;;;;;;24.08;21.75;;;21.90;67.70;;;;;;5054061;28;20040;-65
2022/07/21 06:48:48;;;;;;;25.38;22.92;;;21.80;68.00;;;;;;5052996;28;20119;-65
2022/07/21 06:51:13;;;;;;;24.65;22.23;;;21.70;68.10;;;;;;5052232;28;20596;-65
2022/07/21 06:53:42;;;;;;;24.25;22.05;;;21.60;68.40;;;;;;5036078;28;20089;-65
2022/07/21 06:56:08;;;;;;;24.23;21.95;;;21.50;68.60;;;;;;5052475;28;20547;-64
2022/07/21 06:58:34;;;;;;;18.83;17.13;;;21.50;68.90;;;;;;5036221;28;20486;-63
2022/07/21 07:00:59;;;;;;;23.98;21.77;;;21.40;69.10;;;;;;5053195;28;20056;-64
2022/07/21 07:03:25;;;;;;;26.02;23.48;;;21.40;69.40;;;;;;5052454;28;20051;-63
2022/07/21 07:05:51;;;;;;;24.02;21.55;;;21.40;69.70;;;;;;5052794;28;20041;-67
2022/07/21 07:08:18;;;;;;;25.73;23.27;;;21.40;69.90;;;;;;5052843;28;20450;-69
2022/07/21 07:10:46;;;;;;;28.40;25.63;;;21.40;70.30;;;;;;5052819;28;20055;-69
2022/07/21 07:13:13;;;;;;;29.63;25.85;;;21.40;70.50;;;;;;5052304;28;20110;-70
2022/07/21 07:15:39;;;;;;;29.73;26.88;;;21.30;70.60;;;;;;5052594;28;20132;-65
2022/07/21 07:18:05;;;;;;;30.40;27.25;;;21.30;71.30;;;;;;5052079;28;20052;-65
2022/07/21 07:20:31;;;;;;;34.08;30.75;;;21.30;71.40;;;;;;5051881;28;20049;-65
2022/07/21 07:22:57;;;;;;;33.38;30.00;;;21.30;71.00;;;;;;5051989;28;20379;-63
2022/07/21 07:25:23;;;;;;;34.13;30.63;;;21.20;70.80;;;;;;5053327;28;20048;-64
2022/07/21 07:27:50;;;;;;;34.40;30.88;;;21.20;70.90;;;;;;5051705;28;20048;-64
2022/07/21 07:30:17;;;;;;;31.45;28.33;;;21.20;70.60;;;;;;5052851;28;20045;-64
2022/07/21 07:32:43;;;;;;;33.40;30.02;;;21.10;70.70;;;;;;5051745;28;20116;-64
2022/07/21 07:35:10;;;;;;;33.15;29.67;;;21.20;71.00;;;;;;5068565;28;20083;-64
2022/07/21 07:37:38;;;;;;;30.75;27.60;;;21.10;71.30;;;;;;5051997;28;20513;-64
2022/07/21 07:40:07;;;;;;;34.50;30.88;;;21.20;70.90;;;;;;5052875;28;20436;-64
2022/07/21 07:42:33;;;;;;;31.25;28.00;;;21.20;70.90;;;;;;5051567;28;20079;-64
2022/07/21 07:44:59;;;;;;;29.77;26.73;;;21.20;70.90;;;;;;5051794;28;20041;-64
2022/07/21 07:47:25;;;;;;;32.53;29.13;;;21.20;70.90;;;;;;5052736;28;20074;-64
2022/07/21 07:49:52;;;;;;;34.63;30.83;;;21.20;70.90;;;;;;5051482;28;20095;-64
2022/07/21 07:52:21;;;;;;;33.72;30.25;;;21.30;70.90;;;;;;5051800;28;20441;-64
2022/07/21 07:54:46;;;;;;;34.90;31.30;;;21.30;70.90;;;;;;5051529;28;20060;-64
2022/07/21 07:57:12;;;;;;;28.27;25.38;;;21.40;70.90;;;;;;5052877;28;20033;-64
2022/07/21 07:59:38;;;;;;;36.38;32.40;;;21.40;70.60;;;;;;5052769;28;20390;-64
2022/07/21 08:02:04;;;;;;;31.95;28.75;;;21.50;70.60;;;;;;5052424;28;20603;-65
2022/07/21 08:04:29;;;;;;;33.25;29.75;;;21.50;70.70;;;;;;5035147;28;20045;-65
2022/07/21 08:06:55;;;;;;;33.20;29.20;;;21.50;70.40;;;;;;5051493;28;20127;-65
2022/07/21 08:09:21;;;;;;;29.30;26.13;;;21.60;70.10;;;;;;5050950;28;20049;-65
2022/07/21 08:11:47;;;;;;;38.47;34.33;;;21.70;70.00;;;;;;5034875;28;20041;-65
2022/07/21 08:14:16;;;;;;;35.67;31.85;;;21.80;70.10;;;;;;5051046;28;20071;-65
2022/07/21 08:16:42;;;;;;;38.22;31.85;;;21.80;70.00;;;;;;5035099;28;20045;-64
2022/07/21 08:19:08;;;;;;;36.65;31.98;;;21.90;70.00;;;;;;5034534;28;20383;-64
2022/07/21 08:21:34;;;;;;;38.50;34.60;;;22.00;69.80;;;;;;5050993;28;20033;-65
2022/07/21 08:24:01;;;;;;;33.92;30.33;;;22.00;69.80;;;;;;5050975;28;20512;-68
2022/07/21 08:26:26;;;;;;;37.20;33.45;;;22.10;69.60;;;;;;5035060;28;20052;-70
2022/07/21 08:28:54;;;;;;;40.00;36.00;;;22.10;69.60;;;;;;5051546;28;20044;-69
2022/07/21 08:31:20;;;;;;;34.78;31.35;;;22.20;69.00;;;;;;5035063;28;20045;-69
2022/07/21 08:33:45;;;;;;;40.00;35.80;;;22.30;68.80;;;;;;5051426;28;20041;-70
2022/07/21 08:36:11;;;;;;;38.72;34.75;;;22.30;68.90;;;;;;5051429;28;20508;-69
2022/07/21 08:38:37;;;;;;;37.50;33.67;;;22.40;68.90;;;;;;5034908;28;20037;-69
2022/07/21 08:41:03;;;;;;;34.50;30.95;;;22.40;68.60;;;;;;5051783;28;20037;-69
2022/07/21 08:43:29;;;;;;;34.42;31.02;;;22.50;68.20;;;;;;5051719;28;20063;-69
2022/07/21 08:45:55;;;;;;;36.60;33.08;;;22.60;68.20;;;;;;5051433;28;20044;-69
2022/07/21 08:48:24;;;;;;;32.42;29.15;;;22.60;68.20;;;;;;5051352;28;20080;-70
2022/07/21 08:50:50;;;;;;;36.45;32.90;;;22.70;68.10;;;;;;5052458;28;20037;-69
2022/07/21 08:53:16;;;;;;;32.92;29.63;;;22.70;68.10;;;;;;5052666;28;20102;-68
2022/07/21 08:55:42;;;;;;;30.55;27.52;;;22.70;67.70;;;;;;5051718;28;20045;-70
2022/07/21 08:58:09;;;;;;;29.30;26.35;;;22.80;67.30;;;;;;5051227;28;20545;-69
2022/07/21 09:00:35;;;;;;;36.67;32.58;;;22.80;66.90;;;;;;5051161;28;20390;-69
2022/07/21 09:03:22;;;;;;;32.42;29.30;;;22.90;67.20;;;;;;5052354;28;20097;-69
2022/07/21 09:06:07;;;;;;;34.63;31.20;;;22.90;66.90;;;;;;5018741;28;20049;-69
2022/07/21 09:08:37;;;;;;;27.17;24.60;;;23.00;66.80;;;;;;5039086;28;20038;-70
2022/07/21 09:11:17;;;;;;;29.70;26.67;;;23.00;66.10;;;;;;5054720;28;20485;-69
2022/07/21 09:13:46;;;;;;;28.73;25.95;;;23.10;66.10;;;;;;5055916;28;20498;-65
2022/07/21 09:16:12;;;;;;;32.08;28.77;;;23.10;66.00;;;;;;5054713;28;20076;-65
2022/07/21 09:18:49;;;;;;;33.55;30.17;;;23.10;65.90;;;;;;5054133;28;20462;-65
2022/07/21 09:21:16;;;;;;;33.75;30.15;;;23.20;66.50;;;;;;5054299;28;20044;-65
2022/07/21 09:23:42;;;;;;;31.98;28.70;;;23.20;66.00;;;;;;5037837;28;20123;-65
2022/07/21 09:26:07;;;;;;;28.08;25.27;;;23.30;66.00;;;;;;5054413;28;20438;-65
2022/07/21 09:28:33;;;;;;;32.78;29.45;;;23.40;66.00;;;;;;5055275;28;20045;-65
2022/07/21 09:31:03;;;;;;;28.83;25.77;;;23.40;65.70;;;;;;5054329;28;20056;-65
2022/07/21 09:33:33;;;;;;;30.08;26.00;;;23.50;65.40;;;;;;5053770;28;20112;-65
2022/07/21 09:36:00;;;;;;;30.35;27.50;;;23.50;65.00;;;;;;5034258;28;20057;-65
2022/07/21 09:38:29;;;;;;;29.73;26.73;;;23.60;65.40;;;;;;5034137;28;20511;-65
2022/07/21 09:40:58;;;;;;;33.58;30.05;;;23.70;65.30;;;;;;5054864;28;20122;-67
2022/07/21 09:43:41;;;;;;;28.40;25.50;;;23.80;64.40;;;;;;5054381;28;20383;-66
2022/07/21 09:46:11;;;;;;;30.48;27.27;;;23.80;64.20;;;;;;5053373;28;20055;-65
2022/07/21 09:48:39;;;;;;;25.20;22.67;;;23.90;63.80;;;;;;5054212;28;20390;-65
2022/07/21 09:51:22;;;;;;;28.42;25.33;;;24.00;63.40;;;;;;5053827;28;20390;-65
2022/07/21 09:53:55;;;;;;;27.55;24.85;;;24.00;63.70;;;;;;5053877;28;20119;-65
2022/07/21 09:56:22;;;;;;;26.25;23.58;;;24.10;63.70;;;;;;5040702;28;20045;-65
2022/07/21 09:58:50;;;;;;;28.77;25.92;;;24.20;63.40;;;;;;5054083;28;20096;-65
2022/07/21 10:01:16;;;;;;;27.60;24.27;;;24.20;63.50;;;;;;5053425;28;20053;-63
2022/07/21 10:03:46;;;;;;;27.38;24.42;;;24.30;63.30;;;;;;5054964;28;20493;-63
2022/07/21 10:06:15;;;;;;;27.25;24.42;;;24.40;62.80;;;;;;5055033;28;20123;-63
2022/07/21 10:08:41;;;;;;;25.15;22.67;;;24.50;63.20;;;;;;5053573;28;20052;-63
2022/07/21 10:11:08;;;;;;;24.60;22.10;;;24.50;62.60;;;;;;5053359;28;20095;-63
2022/07/21 10:13:34;;;;;;;25.90;23.23;;;24.60;62.20;;;;;;5054638;28;20478;-63
2022/07/21 10:16:01;;;;;;;28.98;26.02;;;24.60;61.60;;;;;;5052265;28;20051;-64
2022/07/21 10:18:30;;;;;;;32.42;29.23;;;24.60;61.40;;;;;;5053352;28;20094;-65
2022/07/21 10:21:02;;;;;;;34.60;31.30;;;24.70;61.40;;;;;;5052900;28;20041;-65
2022/07/21 10:23:42;;;;;;;26.52;23.80;;;24.80;61.70;;;;;;5053288;28;20052;-65
2022/07/21 10:26:10;;;;;;;25.75;23.20;;;24.80;61.10;;;;;;5054355;28;20454;-65
2022/07/21 10:28:36;;;;;;;30.17;27.23;;;24.80;60.90;;;;;;5053113;28;20080;-63
2022/07/21 10:31:17;;;;;;;24.90;22.40;;;24.90;61.20;;;;;;5054167;28;20110;-63
2022/07/21 10:33:45;;;;;;;30.42;27.48;;;25.00;60.70;;;;;;5053020;28;20095;-64
2022/07/21 10:36:33;;;;;;;30.23;27.23;;;25.00;60.80;;;;;;5052945;28;20076;-64
2022/07/21 10:39:13;;;;;;;27.63;24.80;;;25.10;61.00;;;;;;5053036;28;20112;-68
2022/07/21 10:41:52;;;;;;;25.98;23.27;;;25.20;60.50;;;;;;5052861;28;20124;-70
2022/07/21 10:44:27;;;;;;;30.67;27.48;;;25.30;60.10;;;;;;5052957;28;20076;-69
2022/07/21 10:47:20;;;;;;;27.25;24.65;;;25.30;59.60;;;;;;5052802;28;20056;-69
2022/07/21 10:49:56;;;;;;;24.10;21.77;;;25.30;59.40;;;;;;5052948;28;20053;-69
2022/07/21 10:52:41;;;;;;;24.70;22.23;;;25.40;59.50;;;;;;5052814;28;20116;-69
2022/07/21 10:55:12;;;;;;;25.08;22.63;;;25.40;59.30;;;;;;5052695;28;20526;-68
2022/07/21 10:57:46;;;;;;;28.92;25.98;;;25.40;59.00;;;;;;5052706;28;20492;-68
2022/07/21 11:00:20;;;;;;;27.52;24.83;;;25.50;59.10;;;;;;5052339;28;20044;-68
2022/07/21 11:02:49;;;;;;;31.42;28.35;;;25.50;59.10;;;;;;5051961;28;20065;-69
2022/07/21 11:05:15;;;;;;;25.00;22.63;;;25.50;59.20;;;;;;5052495;28;20051;-69
2022/07/21 11:08:13;;;;;;;27.77;25.08;;;25.60;59.00;;;;;;5052522;28;20048;-69
2022/07/21 11:10:51;;;;;;;27.50;24.73;;;25.60;58.90;;;;;;5052318;28;20041;-69
2022/07/21 11:13:19;;;;;;;25.75;23.25;;;25.60;59.30;;;;;;5035728;28;20080;-69
2022/07/21 11:15:48;;;;;;;30.67;27.67;;;25.60;59.00;;;;;;5052432;28;20076;-68
2022/07/21 11:18:25;;;;;;;30.83;27.73;;;25.60;58.50;;;;;;5035820;28;20102;-69
2022/07/21 11:21:08;;;;;;;27.75;25.15;;;25.60;58.30;;;;;;5052171;28;20478;-70
2022/07/21 11:23:47;;;;;;;29.70;26.77;;;25.50;58.40;;;;;;5052513;28;20094;-65
2022/07/21 11:26:16;;;;;;;27.60;25.00;;;25.50;58.20;;;;;;5051739;28;20047;-64
2022/07/21 11:28:44;;;;;;;24.42;22.00;;;25.40;58.40;;;;;;5051751;28;20055;-65
2022/07/21 11:31:21;;;;;;;24.88;22.58;;;25.40;58.50;;;;;;5051663;28;20041;-65
2022/07/21 11:33:48;;;;;;;13.80;12.43;;;25.40;58.50;;;;;;5052018;28;20450;-64
2022/07/21 11:36:27;;;;;;;14.60;13.13;;;25.40;58.70;;;;;;5035323;28;20094;-68
2022/07/21 11:39:02;;;;;;;12.45;10.90;;;25.30;59.00;;;;;;5035726;28;20041;-64
2022/07/21 11:41:28;;;;;;;11.52;10.40;;;25.30;59.60;;;;;;5053123;28;20485;-65
2022/07/21 11:43:54;;;;;;;10.60;8.98;;;25.20;59.60;;;;;;5052105;28;20087;-65
2022/07/21 11:46:20;;;;;;;11.25;9.35;;;25.20;59.50;;;;;;5052801;28;20560;-65
2022/07/21 11:48:45;;;;;;;8.73;7.88;;;25.10;60.00;;;;;;5051594;28;20098;-65
2022/07/21 11:51:12;;;;;;;10.70;9.68;;;25.10;59.90;;;;;;5051493;28;20049;-65
2022/07/21 11:53:44;;;;;;;10.25;9.25;;;25.00;60.10;;;;;;5052895;28;20041;-65
2022/07/21 11:56:14;;;;;;;11.45;8.90;;;24.70;60.10;;;;;;5052717;28;20045;-65
2022/07/21 11:58:41;;;;;;;10.15;9.15;;;24.80;60.10;;;;;;5051647;28;20120;-65
2022/07/21 12:01:08;;;;;;;9.98;8.65;;;24.70;60.70;;;;;;5052441;28;20064;-65
2022/07/21 12:03:34;;;;;;;10.57;9.60;;;24.60;61.00;;;;;;5053088;28;20079;-65
2022/07/21 12:06:01;;;;;;;7.95;7.18;;;24.60;61.30;;;;;;5051766;28;20045;-64
2022/07/21 12:08:29;;;;;;;7.82;6.95;;;24.50;61.20;;;;;;5051251;28;20094;-65
2022/07/21 12:11:08;;;;;;;10.40;7.50;;;24.40;61.30;;;;;;5051438;28;20395;-64
2022/07/21 12:13:52;;;;;;;9.57;8.18;;;24.40;61.40;;;;;;5051198;28;20053;-63
2022/07/21 12:16:18;;;;;;;8.35;7.55;;;24.30;62.20;;;;;;5052615;28;20044;-64
2022/07/21 12:18:44;;;;;;;10.00;9.10;;;24.20;62.20;;;;;;5051051;28;20486;-64
2022/07/21 12:21:09;;;;;;;9.95;8.95;;;24.10;62.20;;;;;;5068068;28;20067;-64
2022/07/21 12:23:36;;;;;;;9.13;8.23;;;24.10;62.30;;;;;;5047555;28;20045;-63
2022/07/21 12:26:03;;;;;;;11.13;10.02;;;24.00;62.60;;;;;;5032598;28;20048;-63
2022/07/21 12:28:52;;;;;;;9.10;8.27;;;24.00;63.00;;;;;;5049021;28;20036;-63
2022/07/21 12:31:23;;;;;;;9.38;8.48;;;23.90;62.80;;;;;;5052602;28;20167;-63
2022/07/21 12:33:55;;;;;;;7.63;6.93;;;23.90;62.90;;;;;;5034415;28;20063;-64